sensor_id;sensor_type;location;lat;lon;timestamp;P1;durP1;ratioP1;P2;durP2;ratioP2
10939;SDS011;5522;42.696;23.494;2023-04-25T00:01:54;1.10;;;0.35;;
10939;SDS011;5522;42.696;23.494;2023-04-25T00:04:24;0.40;;;0.40;;
10939;SDS011;5522;42.696;23.494;2023-04-25T00:06:50;0.60;;;0.30;;
10939;SDS011;5522;42.696;23.494;2023-04-25T00:09:18;3.55;;;0.32;;
10939;SDS011;5522;42.696;23.494;2023-04-25T00:11:45;0.30;;;0.30;;
10939;SDS011;5522;42.696;23.494;2023-04-25T00:14:11;0.85;;;0.40;;
10939;SDS011;5522;42.696;23.494;2023-04-25T00:16:38;0.65;;;0.52;;
10939;SDS011;5522;42.696;23.494;2023-04-25T00:19:06;1.10;;;0.40;;
10939;SDS011;5522;42.696;23.494;2023-04-25T00:21:34;0.40;;;0.40;;
10939;SDS011;5522;42.696;23.494;2023-04-25T00:24:02;0.50;;;0.50;;
10939;SDS011;5522;42.696;23.494;2023-04-25T00:26:29;0.50;;;0.50;;
10939;SDS011;5522;42.696;23.494;2023-04-25T00:28:56;0.40;;;0.40;;
10939;SDS011;5522;42.696;23.494;2023-04-25T00:31:23;0.70;;;0.63;;
10939;SDS011;5522;42.696;23.494;2023-04-25T00:33:50;0.68;;;0.63;;
10939;SDS011;5522;42.696;23.494;2023-04-25T00:36:18;0.40;;;0.40;;
10939;SDS011;5522;42.696;23.494;2023-04-25T00:38:46;0.60;;;0.50;;
10939;SDS011;5522;42.696;23.494;2023-04-25T00:41:13;1.13;;;0.47;;
10939;SDS011;5522;42.696;23.494;2023-04-25T00:43:40;0.95;;;0.50;;
10939;SDS011;5522;42.696;23.494;2023-04-25T00:46:08;1.65;;;0.50;;
10939;SDS011;5522;42.696;23.494;2023-04-25T00:48:34;0.70;;;0.50;;
10939;SDS011;5522;42.696;23.494;2023-04-25T00:51:01;1.90;;;0.65;;
10939;SDS011;5522;42.696;23.494;2023-04-25T00:53:28;0.70;;;0.70;;
10939;SDS011;5522;42.696;23.494;2023-04-25T00:55:58;0.55;;;0.55;;
10939;SDS011;5522;42.696;23.494;2023-04-25T00:58:25;1.20;;;0.80;;
10939;SDS011;5522;42.696;23.494;2023-04-25T01:06:02;0.50;;;0.50;;
10939;SDS011;5522;42.696;23.494;2023-04-25T01:08:29;0.65;;;0.60;;
10939;SDS011;5522;42.696;23.494;2023-04-25T01:10:58;0.70;;;0.60;;
10939;SDS011;5522;42.696;23.494;2023-04-25T01:13:25;0.70;;;0.70;;
10939;SDS011;5522;42.696;23.494;2023-04-25T01:15:52;1.63;;;0.80;;
10939;SDS011;5522;42.696;23.494;2023-04-25T01:18:19;1.10;;;0.50;;
10939;SDS011;5522;42.696;23.494;2023-04-25T01:20:46;0.70;;;0.70;;
10939;SDS011;5522;42.696;23.494;2023-04-25T01:23:14;1.38;;;0.60;;
10939;SDS011;5522;42.696;23.494;2023-04-25T01:25:41;1.95;;;0.68;;
10939;SDS011;5522;42.696;23.494;2023-04-25T01:28:08;1.30;;;0.60;;
10939;SDS011;5522;42.696;23.494;2023-04-25T01:30:35;0.93;;;0.75;;
10939;SDS011;5522;42.696;23.494;2023-04-25T01:33:02;0.60;;;0.60;;
10939;SDS011;5522;42.696;23.494;2023-04-25T01:35:30;0.60;;;0.60;;
10939;SDS011;5522;42.696;23.494;2023-04-25T01:37:57;0.60;;;0.60;;
10939;SDS011;5522;42.696;23.494;2023-04-25T01:40:26;0.60;;;0.60;;
10939;SDS011;5522;42.696;23.494;2023-04-25T01:42:54;1.08;;;0.70;;
10939;SDS011;5522;42.696;23.494;2023-04-25T01:45:21;0.70;;;0.70;;
10939;SDS011;5522;42.696;23.494;2023-04-25T01:47:48;0.50;;;0.50;;
10939;SDS011;5522;42.696;23.494;2023-04-25T01:50:15;1.00;;;0.80;;
10939;SDS011;5522;42.696;23.494;2023-04-25T01:52:43;1.75;;;1.00;;
10939;SDS011;5522;42.696;23.494;2023-04-25T01:55:10;1.77;;;1.20;;
10939;SDS011;5522;42.696;23.494;2023-04-25T01:57:39;1.63;;;1.52;;
10939;SDS011;5522;42.696;23.494;2023-04-25T02:00:06;1.52;;;1.25;;
10939;SDS011;5522;42.696;23.494;2023-04-25T02:02:34;2.08;;;1.98;;
10939;SDS011;5522;42.696;23.494;2023-04-25T02:05:01;3.10;;;3.00;;
10939;SDS011;5522;42.696;23.494;2023-04-25T02:07:27;3.83;;;3.63;;
10939;SDS011;5522;42.696;23.494;2023-04-25T02:09:54;4.10;;;3.80;;
10939;SDS011;5522;42.696;23.494;2023-04-25T02:12:21;3.85;;;3.67;;
10939;SDS011;5522;42.696;23.494;2023-04-25T02:14:49;4.38;;;4.18;;
10939;SDS011;5522;42.696;23.494;2023-04-25T02:17:16;3.17;;;2.95;;
10939;SDS011;5522;42.696;23.494;2023-04-25T02:19:44;3.08;;;2.88;;
10939;SDS011;5522;42.696;23.494;2023-04-25T02:22:11;2.53;;;2.42;;
10939;SDS011;5522;42.696;23.494;2023-04-25T02:24:38;2.53;;;2.42;;
10939;SDS011;5522;42.696;23.494;2023-04-25T02:27:05;2.33;;;1.90;;
10939;SDS011;5522;42.696;23.494;2023-04-25T02:29:32;1.98;;;1.98;;
10939;SDS011;5522;42.696;23.494;2023-04-25T02:32:01;2.15;;;2.05;;
10939;SDS011;5522;42.696;23.494;2023-04-25T02:34:27;1.95;;;1.85;;
10939;SDS011;5522;42.696;23.494;2023-04-25T02:36:54;2.05;;;1.98;;
10939;SDS011;5522;42.696;23.494;2023-04-25T02:39:21;1.92;;;1.85;;
10939;SDS011;5522;42.696;23.494;2023-04-25T02:41:50;2.13;;;2.03;;
10939;SDS011;5522;42.696;23.494;2023-04-25T02:44:17;2.63;;;2.33;;
10939;SDS011;5522;42.696;23.494;2023-04-25T02:46:43;2.08;;;1.70;;
10939;SDS011;5522;42.696;23.494;2023-04-25T02:49:11;2.10;;;1.80;;
10939;SDS011;5522;42.696;23.494;2023-04-25T02:51:38;2.25;;;2.15;;
10939;SDS011;5522;42.696;23.494;2023-04-25T02:54:05;2.42;;;2.33;;
10939;SDS011;5522;42.696;23.494;2023-04-25T02:56:32;2.95;;;2.78;;
10939;SDS011;5522;42.696;23.494;2023-04-25T02:58:59;1.92;;;1.92;;
10939;SDS011;5522;42.696;23.494;2023-04-25T03:01:25;2.97;;;2.05;;
10939;SDS011;5522;42.696;23.494;2023-04-25T03:03:52;4.13;;;3.78;;
10939;SDS011;5522;42.696;23.494;2023-04-25T03:06:20;7.43;;;5.22;;
10939;SDS011;5522;42.696;23.494;2023-04-25T03:08:47;6.22;;;5.38;;
10939;SDS011;5522;42.696;23.494;2023-04-25T03:11:14;3.78;;;3.45;;
10939;SDS011;5522;42.696;23.494;2023-04-25T03:13:41;3.28;;;3.10;;
10939;SDS011;5522;42.696;23.494;2023-04-25T03:16:08;3.63;;;2.67;;
10939;SDS011;5522;42.696;23.494;2023-04-25T03:18:35;2.85;;;2.67;;
10939;SDS011;5522;42.696;23.494;2023-04-25T03:21:01;2.55;;;2.45;;
10939;SDS011;5522;42.696;23.494;2023-04-25T03:23:30;3.08;;;2.80;;
10939;SDS011;5522;42.696;23.494;2023-04-25T03:25:57;3.38;;;2.42;;
10939;SDS011;5522;42.696;23.494;2023-04-25T03:28:23;3.13;;;2.95;;
10939;SDS011;5522;42.696;23.494;2023-04-25T03:30:50;3.45;;;3.25;;
10939;SDS011;5522;42.696;23.494;2023-04-25T03:33:17;3.83;;;3.55;;
10939;SDS011;5522;42.696;23.494;2023-04-25T03:35:44;4.88;;;4.45;;
10939;SDS011;5522;42.696;23.494;2023-04-25T03:38:11;4.28;;;3.42;;
10939;SDS011;5522;42.696;23.494;2023-04-25T03:40:39;3.88;;;3.67;;
10939;SDS011;5522;42.696;23.494;2023-04-25T03:43:05;6.30;;;5.70;;
10939;SDS011;5522;42.696;23.494;2023-04-25T03:45:32;4.70;;;4.30;;
10939;SDS011;5522;42.696;23.494;2023-04-25T03:47:59;9.02;;;6.82;;
10939;SDS011;5522;42.696;23.494;2023-04-25T03:50:26;21.90;;;19.70;;
10939;SDS011;5522;42.696;23.494;2023-04-25T03:52:53;25.52;;;21.20;;
10939;SDS011;5522;42.696;23.494;2023-04-25T03:55:19;151.95;;;75.60;;
10939;SDS011;5522;42.696;23.494;2023-04-25T03:57:48;119.25;;;79.80;;
10939;SDS011;5522;42.696;23.494;2023-04-25T04:00:14;62.38;;;43.70;;
10939;SDS011;5522;42.696;23.494;2023-04-25T04:02:41;63.22;;;41.58;;
10939;SDS011;5522;42.696;23.494;2023-04-25T04:05:08;10.13;;;9.20;;
10939;SDS011;5522;42.696;23.494;2023-04-25T04:07:35;23.70;;;21.13;;
10939;SDS011;5522;42.696;23.494;2023-04-25T04:10:05;10.40;;;9.48;;
10939;SDS011;5522;42.696;23.494;2023-04-25T04:12:32;5.50;;;5.20;;
10939;SDS011;5522;42.696;23.494;2023-04-25T04:15:01;4.68;;;4.47;;
10939;SDS011;5522;42.696;23.494;2023-04-25T04:17:28;2.28;;;2.17;;
10939;SDS011;5522;42.696;23.494;2023-04-25T04:19:55;20.13;;;14.27;;
10939;SDS011;5522;42.696;23.494;2023-04-25T04:22:22;7.55;;;6.85;;
10939;SDS011;5522;42.696;23.494;2023-04-25T04:24:50;0.98;;;0.98;;
10939;SDS011;5522;42.696;23.494;2023-04-25T04:27:17;0.57;;;0.57;;
10939;SDS011;5522;42.696;23.494;2023-04-25T04:29:44;2.70;;;0.60;;
10939;SDS011;5522;42.696;23.494;2023-04-25T04:32:13;0.77;;;0.57;;
10939;SDS011;5522;42.696;23.494;2023-04-25T04:34:40;0.60;;;0.60;;
10939;SDS011;5522;42.696;23.494;2023-04-25T04:37:07;1.73;;;1.52;;
10939;SDS011;5522;42.696;23.494;2023-04-25T04:39:34;2.22;;;0.88;;
10939;SDS011;5522;42.696;23.494;2023-04-25T04:42:01;4.32;;;4.03;;
10939;SDS011;5522;42.696;23.494;2023-04-25T04:44:30;2.33;;;1.95;;
10939;SDS011;5522;42.696;23.494;2023-04-25T04:46:59;1.30;;;1.30;;
10939;SDS011;5522;42.696;23.494;2023-04-25T04:49:28;1.50;;;1.45;;
10939;SDS011;5522;42.696;23.494;2023-04-25T04:51:55;1.48;;;0.52;;
10939;SDS011;5522;42.696;23.494;2023-04-25T04:54:22;0.50;;;0.50;;
10939;SDS011;5522;42.696;23.494;2023-04-25T04:56:48;0.50;;;0.50;;
10939;SDS011;5522;42.696;23.494;2023-04-25T04:59:16;0.52;;;0.52;;
10939;SDS011;5522;42.696;23.494;2023-04-25T05:01:43;3.67;;;3.38;;
10939;SDS011;5522;42.696;23.494;2023-04-25T05:04:09;1.50;;;1.50;;
10939;SDS011;5522;42.696;23.494;2023-04-25T05:06:37;1.17;;;1.08;;
10939;SDS011;5522;42.696;23.494;2023-04-25T05:09:05;1.20;;;1.10;;
10939;SDS011;5522;42.696;23.494;2023-04-25T05:11:32;2.53;;;2.42;;
10939;SDS011;5522;42.696;23.494;2023-04-25T05:13:59;1.02;;;1.02;;
10939;SDS011;5522;42.696;23.494;2023-04-25T05:16:25;0.88;;;0.88;;
10939;SDS011;5522;42.696;23.494;2023-04-25T05:18:52;1.10;;;1.10;;
10939;SDS011;5522;42.696;23.494;2023-04-25T05:21:19;1.67;;;1.33;;
10939;SDS011;5522;42.696;23.494;2023-04-25T05:23:47;1.60;;;1.50;;
10939;SDS011;5522;42.696;23.494;2023-04-25T05:26:14;3.10;;;2.90;;
10939;SDS011;5522;42.696;23.494;2023-04-25T05:28:41;1.80;;;1.70;;
10939;SDS011;5522;42.696;23.494;2023-04-25T05:31:08;1.48;;;1.40;;
10939;SDS011;5522;42.696;23.494;2023-04-25T05:33:36;1.55;;;1.42;;
10939;SDS011;5522;42.696;23.494;2023-04-25T05:36:03;2.15;;;1.48;;
10939;SDS011;5522;42.696;23.494;2023-04-25T05:38:30;1.15;;;0.77;;
10939;SDS011;5522;42.696;23.494;2023-04-25T05:40:58;1.00;;;0.93;;
10939;SDS011;5522;42.696;23.494;2023-04-25T05:43:25;1.15;;;1.00;;
10939;SDS011;5522;42.696;23.494;2023-04-25T05:45:52;1.75;;;1.75;;
10939;SDS011;5522;42.696;23.494;2023-04-25T05:48:19;2.10;;;1.45;;
10939;SDS011;5522;42.696;23.494;2023-04-25T05:50:46;1.35;;;1.25;;
10939;SDS011;5522;42.696;23.494;2023-04-25T05:53:12;1.75;;;1.60;;
10939;SDS011;5522;42.696;23.494;2023-04-25T05:55:39;2.50;;;2.42;;
10939;SDS011;5522;42.696;23.494;2023-04-25T05:58:07;2.15;;;2.05;;
10939;SDS011;5522;42.696;23.494;2023-04-25T06:00:34;2.22;;;2.13;;
10939;SDS011;5522;42.696;23.494;2023-04-25T06:03:01;1.60;;;1.50;;
10939;SDS011;5522;42.696;23.494;2023-04-25T06:05:28;2.00;;;1.90;;
10939;SDS011;5522;42.696;23.494;2023-04-25T06:07:55;1.30;;;1.30;;
10939;SDS011;5522;42.696;23.494;2023-04-25T06:10:22;1.95;;;1.50;;
10939;SDS011;5522;42.696;23.494;2023-04-25T06:12:49;2.20;;;2.10;;
10939;SDS011;5522;42.696;23.494;2023-04-25T06:15:17;2.72;;;2.53;;
10939;SDS011;5522;42.696;23.494;2023-04-25T06:17:44;2.90;;;2.80;;
10939;SDS011;5522;42.696;23.494;2023-04-25T06:20:11;1.55;;;1.55;;
10939;SDS011;5522;42.696;23.494;2023-04-25T06:22:38;2.55;;;0.93;;
10939;SDS011;5522;42.696;23.494;2023-04-25T06:25:05;0.60;;;0.60;;
10939;SDS011;5522;42.696;23.494;2023-04-25T06:27:32;0.70;;;0.70;;
10939;SDS011;5522;42.696;23.494;2023-04-25T06:29:59;2.70;;;1.00;;
10939;SDS011;5522;42.696;23.494;2023-04-25T06:32:27;1.30;;;1.20;;
10939;SDS011;5522;42.696;23.494;2023-04-25T06:34:55;1.23;;;1.02;;
10939;SDS011;5522;42.696;23.494;2023-04-25T06:37:21;0.82;;;0.82;;
10939;SDS011;5522;42.696;23.494;2023-04-25T06:39:48;0.60;;;0.60;;
10939;SDS011;5522;42.696;23.494;2023-04-25T06:42:15;1.27;;;1.23;;
10939;SDS011;5522;42.696;23.494;2023-04-25T06:44:42;0.63;;;0.63;;
10939;SDS011;5522;42.696;23.494;2023-04-25T06:47:09;0.80;;;0.80;;
10939;SDS011;5522;42.696;23.494;2023-04-25T06:49:37;2.03;;;1.60;;
10939;SDS011;5522;42.696;23.494;2023-04-25T06:52:04;1.75;;;1.40;;
10939;SDS011;5522;42.696;23.494;2023-04-25T06:54:30;1.85;;;1.75;;
10939;SDS011;5522;42.696;23.494;2023-04-25T06:56:57;3.38;;;1.10;;
10939;SDS011;5522;42.696;23.494;2023-04-25T06:59:25;1.23;;;0.90;;
10939;SDS011;5522;42.696;23.494;2023-04-25T07:01:52;1.60;;;1.50;;
10939;SDS011;5522;42.696;23.494;2023-04-25T07:04:19;1.30;;;1.30;;
10939;SDS011;5522;42.696;23.494;2023-04-25T07:06:47;2.40;;;1.70;;
10939;SDS011;5522;42.696;23.494;2023-04-25T07:09:14;1.48;;;1.38;;
10939;SDS011;5522;42.696;23.494;2023-04-25T07:11:41;0.77;;;0.70;;
10939;SDS011;5522;42.696;23.494;2023-04-25T07:14:08;0.40;;;0.40;;
10939;SDS011;5522;42.696;23.494;2023-04-25T07:16:35;0.32;;;0.32;;
10939;SDS011;5522;42.696;23.494;2023-04-25T07:19:02;2.75;;;0.50;;
10939;SDS011;5522;42.696;23.494;2023-04-25T07:21:28;0.60;;;0.50;;
10939;SDS011;5522;42.696;23.494;2023-04-25T07:23:57;3.15;;;0.70;;
10939;SDS011;5522;42.696;23.494;2023-04-25T07:26:24;0.50;;;0.50;;
10939;SDS011;5522;42.696;23.494;2023-04-25T07:28:51;0.77;;;0.70;;
10939;SDS011;5522;42.696;23.494;2023-04-25T07:31:19;1.05;;;0.80;;
10939;SDS011;5522;42.696;23.494;2023-04-25T07:33:46;0.73;;;0.70;;
10939;SDS011;5522;42.696;23.494;2023-04-25T07:36:13;1.23;;;0.52;;
10939;SDS011;5522;42.696;23.494;2023-04-25T07:38:40;1.17;;;0.70;;
10939;SDS011;5522;42.696;23.494;2023-04-25T07:41:08;0.95;;;0.50;;
10939;SDS011;5522;42.696;23.494;2023-04-25T07:43:35;0.60;;;0.50;;
10939;SDS011;5522;42.696;23.494;2023-04-25T07:46:02;0.68;;;0.50;;
10939;SDS011;5522;42.696;23.494;2023-04-25T07:48:29;1.95;;;0.40;;
10939;SDS011;5522;42.696;23.494;2023-04-25T07:50:56;0.40;;;0.40;;
10939;SDS011;5522;42.696;23.494;2023-04-25T07:53:22;0.40;;;0.40;;
10939;SDS011;5522;42.696;23.494;2023-04-25T07:55:49;1.00;;;0.40;;
10939;SDS011;5522;42.696;23.494;2023-04-25T07:58:18;0.38;;;0.30;;
10939;SDS011;5522;42.696;23.494;2023-04-25T08:00:46;0.70;;;0.47;;
10939;SDS011;5522;42.696;23.494;2023-04-25T08:03:13;1.17;;;0.40;;
10939;SDS011;5522;42.696;23.494;2023-04-25T08:05:40;0.40;;;0.30;;
10939;SDS011;5522;42.696;23.494;2023-04-25T08:08:07;1.00;;;0.30;;
10939;SDS011;5522;42.696;23.494;2023-04-25T08:10:34;0.30;;;0.30;;
10939;SDS011;5522;42.696;23.494;2023-04-25T08:13:00;0.35;;;0.35;;
10939;SDS011;5522;42.696;23.494;2023-04-25T08:15:29;1.08;;;0.40;;
10939;SDS011;5522;42.696;23.494;2023-04-25T08:17:56;0.50;;;0.50;;
10939;SDS011;5522;42.696;23.494;2023-04-25T08:20:22;0.40;;;0.40;;
10939;SDS011;5522;42.696;23.494;2023-04-25T08:22:50;0.40;;;0.40;;
10939;SDS011;5522;42.696;23.494;2023-04-25T08:25:16;0.68;;;0.68;;
10939;SDS011;5522;42.696;23.494;2023-04-25T08:27:43;0.82;;;0.50;;
10939;SDS011;5522;42.696;23.494;2023-04-25T08:30:10;0.90;;;0.85;;
10939;SDS011;5522;42.696;23.494;2023-04-25T08:32:39;1.48;;;0.40;;
10939;SDS011;5522;42.696;23.494;2023-04-25T08:35:06;0.60;;;0.40;;
10939;SDS011;5522;42.696;23.494;2023-04-25T08:37:33;0.50;;;0.50;;
10939;SDS011;5522;42.696;23.494;2023-04-25T08:40:01;0.40;;;0.40;;
10939;SDS011;5522;42.696;23.494;2023-04-25T08:42:32;0.38;;;0.38;;
10939;SDS011;5522;42.696;23.494;2023-04-25T08:45:00;1.35;;;0.40;;
10939;SDS011;5522;42.696;23.494;2023-04-25T08:47:28;0.98;;;0.95;;
10939;SDS011;5522;42.696;23.494;2023-04-25T08:50:00;0.50;;;0.50;;
10939;SDS011;5522;42.696;23.494;2023-04-25T08:52:30;1.25;;;0.52;;
10939;SDS011;5522;42.696;23.494;2023-04-25T08:55:02;2.45;;;2.33;;
10939;SDS011;5522;42.696;23.494;2023-04-25T08:57:31;1.15;;;0.63;;
10939;SDS011;5522;42.696;23.494;2023-04-25T08:59:57;6.07;;;0.50;;
10939;SDS011;5522;42.696;23.494;2023-04-25T09:02:26;0.70;;;0.45;;
10939;SDS011;5522;42.696;23.494;2023-04-25T09:04:53;1.75;;;0.50;;
10939;SDS011;5522;42.696;23.494;2023-04-25T09:07:22;5.85;;;0.75;;
10939;SDS011;5522;42.696;23.494;2023-04-25T09:09:50;2.55;;;0.47;;
10939;SDS011;5522;42.696;23.494;2023-04-25T09:12:17;1.85;;;0.50;;
10939;SDS011;5522;42.696;23.494;2023-04-25T09:14:52;2.25;;;0.70;;
10939;SDS011;5522;42.696;23.494;2023-04-25T09:17:28;2.03;;;0.30;;
10939;SDS011;5522;42.696;23.494;2023-04-25T09:19:55;1.38;;;0.40;;
10939;SDS011;5522;42.696;23.494;2023-04-25T09:22:32;0.20;;;0.20;;
10939;SDS011;5522;42.696;23.494;2023-04-25T09:25:01;2.55;;;0.20;;
10939;SDS011;5522;42.696;23.494;2023-04-25T09:27:29;0.20;;;0.20;;
10939;SDS011;5522;42.696;23.494;2023-04-25T09:29:57;0.30;;;0.20;;
10939;SDS011;5522;42.696;23.494;2023-04-25T09:32:25;0.10;;;0.10;;
10939;SDS011;5522;42.696;23.494;2023-04-25T09:34:52;0.40;;;0.40;;
10939;SDS011;5522;42.696;23.494;2023-04-25T09:37:20;0.20;;;0.10;;
10939;SDS011;5522;42.696;23.494;2023-04-25T09:39:51;0.10;;;0.10;;
10939;SDS011;5522;42.696;23.494;2023-04-25T09:42:21;2.05;;;0.15;;
10939;SDS011;5522;42.696;23.494;2023-04-25T09:44:49;0.73;;;0.50;;
10939;SDS011;5522;42.696;23.494;2023-04-25T09:47:18;0.20;;;0.15;;
10939;SDS011;5522;42.696;23.494;2023-04-25T09:49:46;0.10;;;0.10;;
10939;SDS011;5522;42.696;23.494;2023-04-25T09:52:14;0.32;;;0.10;;
10939;SDS011;5522;42.696;23.494;2023-04-25T09:54:41;3.22;;;3.03;;
10939;SDS011;5522;42.696;23.494;2023-04-25T09:57:11;1.85;;;1.75;;
10939;SDS011;5522;42.696;23.494;2023-04-25T09:59:42;2.05;;;0.50;;
10939;SDS011;5522;42.696;23.494;2023-04-25T10:02:11;0.30;;;0.28;;
10939;SDS011;5522;42.696;23.494;2023-04-25T10:04:38;1.42;;;1.42;;
10939;SDS011;5522;42.696;23.494;2023-04-25T10:07:06;0.10;;;0.10;;
10939;SDS011;5522;42.696;23.494;2023-04-25T10:09:36;0.10;;;0.10;;
10939;SDS011;5522;42.696;23.494;2023-04-25T10:12:04;0.20;;;0.20;;
10939;SDS011;5522;42.696;23.494;2023-04-25T10:14:33;0.85;;;0.20;;
10939;SDS011;5522;42.696;23.494;2023-04-25T10:17:01;0.43;;;0.20;;
10939;SDS011;5522;42.696;23.494;2023-04-25T10:19:28;5.47;;;0.40;;
10939;SDS011;5522;42.696;23.494;2023-04-25T10:21:57;1.88;;;0.47;;
10939;SDS011;5522;42.696;23.494;2023-04-25T10:24:30;3.05;;;0.50;;
10939;SDS011;5522;42.696;23.494;2023-04-25T10:26:57;1.10;;;0.30;;
10939;SDS011;5522;42.696;23.494;2023-04-25T10:29:24;0.22;;;0.22;;
10939;SDS011;5522;42.696;23.494;2023-04-25T10:31:53;0.35;;;0.35;;
10939;SDS011;5522;42.696;23.494;2023-04-25T10:34:23;0.25;;;0.20;;
10939;SDS011;5522;42.696;23.494;2023-04-25T10:37:03;0.80;;;0.30;;
10939;SDS011;5522;42.696;23.494;2023-04-25T10:39:30;0.20;;;0.20;;
10939;SDS011;5522;42.696;23.494;2023-04-25T10:41:59;0.77;;;0.40;;
10939;SDS011;5522;42.696;23.494;2023-04-25T10:44:29;1.58;;;0.38;;
10939;SDS011;5522;42.696;23.494;2023-04-25T10:46:58;2.05;;;0.40;;
10939;SDS011;5522;42.696;23.494;2023-04-25T10:49:32;7.20;;;0.50;;
10939;SDS011;5522;42.696;23.494;2023-04-25T10:54:55;5.78;;;0.30;;
10939;SDS011;5522;42.696;23.494;2023-04-25T11:17:57;0.47;;;0.10;;
10939;SDS011;5522;42.696;23.494;2023-04-25T11:20:25;4.32;;;0.10;;
10939;SDS011;5522;42.696;23.494;2023-04-25T11:22:53;0.10;;;0.10;;
10939;SDS011;5522;42.696;23.494;2023-04-25T11:25:23;0.00;;;0.00;;
10939;SDS011;5522;42.696;23.494;2023-04-25T11:27:52;0.45;;;0.03;;
10939;SDS011;5522;42.696;23.494;2023-04-25T11:30:19;0.10;;;0.10;;
10939;SDS011;5522;42.696;23.494;2023-04-25T11:32:48;0.10;;;0.10;;
10939;SDS011;5522;42.696;23.494;2023-04-25T11:35:16;0.43;;;0.10;;
10939;SDS011;5522;42.696;23.494;2023-04-25T11:37:43;0.73;;;0.10;;
10939;SDS011;5522;42.696;23.494;2023-04-25T11:40:10;0.10;;;0.10;;
10939;SDS011;5522;42.696;23.494;2023-04-25T11:42:38;1.73;;;0.28;;
10939;SDS011;5522;42.696;23.494;2023-04-25T11:45:05;0.43;;;0.43;;
10939;SDS011;5522;42.696;23.494;2023-04-25T11:47:33;0.90;;;0.10;;
10939;SDS011;5522;42.696;23.494;2023-04-25T11:50:00;0.50;;;0.28;;
10939;SDS011;5522;42.696;23.494;2023-04-25T11:52:36;0.30;;;0.10;;
10939;SDS011;5522;42.696;23.494;2023-04-25T11:55:04;0.80;;;0.10;;
10939;SDS011;5522;42.696;23.494;2023-04-25T11:57:32;0.65;;;0.10;;
10939;SDS011;5522;42.696;23.494;2023-04-25T12:00:05;0.13;;;0.10;;
10939;SDS011;5522;42.696;23.494;2023-04-25T12:02:34;0.10;;;0.10;;
10939;SDS011;5522;42.696;23.494;2023-04-25T12:05:01;0.93;;;0.10;;
10939;SDS011;5522;42.696;23.494;2023-04-25T12:07:28;0.10;;;0.10;;
10939;SDS011;5522;42.696;23.494;2023-04-25T12:09:57;0.22;;;0.13;;
10939;SDS011;5522;42.696;23.494;2023-04-25T12:12:26;0.28;;;0.10;;
10939;SDS011;5522;42.696;23.494;2023-04-25T12:14:53;3.70;;;0.10;;
10939;SDS011;5522;42.696;23.494;2023-04-25T12:17:21;0.00;;;0.00;;
10939;SDS011;5522;42.696;23.494;2023-04-25T12:19:49;0.10;;;0.10;;
10939;SDS011;5522;42.696;23.494;2023-04-25T12:22:19;0.00;;;0.00;;
10939;SDS011;5522;42.696;23.494;2023-04-25T12:24:47;0.63;;;0.10;;
10939;SDS011;5522;42.696;23.494;2023-04-25T12:27:15;5.95;;;0.20;;
10939;SDS011;5522;42.696;23.494;2023-04-25T12:29:50;0.40;;;0.20;;
10939;SDS011;5522;42.696;23.494;2023-04-25T12:32:17;0.45;;;0.10;;
10939;SDS011;5522;42.696;23.494;2023-04-25T12:34:44;1.75;;;0.20;;
10939;SDS011;5522;42.696;23.494;2023-04-25T12:37:11;0.77;;;0.20;;
10939;SDS011;5522;42.696;23.494;2023-04-25T12:39:38;0.20;;;0.10;;
10939;SDS011;5522;42.696;23.494;2023-04-25T12:42:05;0.10;;;0.10;;
10939;SDS011;5522;42.696;23.494;2023-04-25T12:44:34;0.22;;;0.20;;
10939;SDS011;5522;42.696;23.494;2023-04-25T12:47:01;1.77;;;0.10;;
10939;SDS011;5522;42.696;23.494;2023-04-25T12:49:28;0.20;;;0.20;;
10939;SDS011;5522;42.696;23.494;2023-04-25T12:51:55;1.38;;;0.22;;
10939;SDS011;5522;42.696;23.494;2023-04-25T12:54:21;1.58;;;0.10;;
10939;SDS011;5522;42.696;23.494;2023-04-25T12:56:48;0.03;;;0.00;;
10939;SDS011;5522;42.696;23.494;2023-04-25T12:59:16;2.35;;;0.15;;
10939;SDS011;5522;42.696;23.494;2023-04-25T13:01:44;0.75;;;0.10;;
10939;SDS011;5522;42.696;23.494;2023-04-25T13:04:11;1.60;;;0.70;;
10939;SDS011;5522;42.696;23.494;2023-04-25T13:06:37;1.20;;;0.40;;
10939;SDS011;5522;42.696;23.494;2023-04-25T13:09:04;0.40;;;0.10;;
10939;SDS011;5522;42.696;23.494;2023-04-25T13:11:31;0.47;;;0.10;;
10939;SDS011;5522;42.696;23.494;2023-04-25T13:13:58;0.55;;;0.10;;
10939;SDS011;5522;42.696;23.494;2023-04-25T13:16:25;0.70;;;0.00;;
10939;SDS011;5522;42.696;23.494;2023-04-25T13:18:53;0.15;;;0.15;;
10939;SDS011;5522;42.696;23.494;2023-04-25T13:21:21;0.47;;;0.10;;
10939;SDS011;5522;42.696;23.494;2023-04-25T13:23:47;1.08;;;0.00;;
10939;SDS011;5522;42.696;23.494;2023-04-25T13:26:16;0.75;;;0.10;;
10939;SDS011;5522;42.696;23.494;2023-04-25T13:28:42;0.17;;;0.00;;
10939;SDS011;5522;42.696;23.494;2023-04-25T13:31:09;0.10;;;0.00;;
10939;SDS011;5522;42.696;23.494;2023-04-25T13:33:36;0.00;;;0.00;;
10939;SDS011;5522;42.696;23.494;2023-04-25T13:36:05;0.60;;;0.10;;
10939;SDS011;5522;42.696;23.494;2023-04-25T13:38:31;0.80;;;0.00;;
10939;SDS011;5522;42.696;23.494;2023-04-25T13:40:58;2.63;;;0.10;;
10939;SDS011;5522;42.696;23.494;2023-04-25T13:43:26;0.10;;;0.10;;
10939;SDS011;5522;42.696;23.494;2023-04-25T13:45:52;2.58;;;0.30;;
10939;SDS011;5522;42.696;23.494;2023-04-25T13:48:19;0.75;;;0.40;;
10939;SDS011;5522;42.696;23.494;2023-04-25T13:50:47;1.75;;;0.30;;
10939;SDS011;5522;42.696;23.494;2023-04-25T13:53:15;1.27;;;0.30;;
10939;SDS011;5522;42.696;23.494;2023-04-25T13:55:42;2.47;;;0.30;;
10939;SDS011;5522;42.696;23.494;2023-04-25T13:58:09;0.63;;;0.30;;
10939;SDS011;5522;42.696;23.494;2023-04-25T14:00:36;0.90;;;0.28;;
10939;SDS011;5522;42.696;23.494;2023-04-25T14:03:05;0.43;;;0.30;;
10939;SDS011;5522;42.696;23.494;2023-04-25T14:05:33;2.03;;;0.30;;
10939;SDS011;5522;42.696;23.494;2023-04-25T14:08:04;0.75;;;0.40;;
10939;SDS011;5522;42.696;23.494;2023-04-25T14:10:33;1.40;;;0.40;;
10939;SDS011;5522;42.696;23.494;2023-04-25T14:13:01;9.65;;;5.32;;
10939;SDS011;5522;42.696;23.494;2023-04-25T14:15:31;98.45;;;39.80;;
10939;SDS011;5522;42.696;23.494;2023-04-25T14:17:59;15.90;;;7.03;;
10939;SDS011;5522;42.696;23.494;2023-04-25T14:20:27;16.58;;;9.18;;
10939;SDS011;5522;42.696;23.494;2023-04-25T14:22:54;33.00;;;19.77;;
10939;SDS011;5522;42.696;23.494;2023-04-25T14:25:21;6.35;;;5.75;;
10939;SDS011;5522;42.696;23.494;2023-04-25T14:27:52;1.83;;;1.35;;
10939;SDS011;5522;42.696;23.494;2023-04-25T14:30:20;1.77;;;0.60;;
10939;SDS011;5522;42.696;23.494;2023-04-25T14:32:48;2.90;;;2.63;;
10939;SDS011;5522;42.696;23.494;2023-04-25T14:35:15;1.00;;;0.70;;
10939;SDS011;5522;42.696;23.494;2023-04-25T14:37:42;0.65;;;0.45;;
10939;SDS011;5522;42.696;23.494;2023-04-25T14:40:09;2.42;;;0.63;;
10939;SDS011;5522;42.696;23.494;2023-04-25T14:42:38;0.82;;;0.40;;
10939;SDS011;5522;42.696;23.494;2023-04-25T14:45:07;0.40;;;0.30;;
10939;SDS011;5522;42.696;23.494;2023-04-25T14:47:34;1.58;;;0.47;;
10939;SDS011;5522;42.696;23.494;2023-04-25T14:50:02;7.03;;;5.05;;
10939;SDS011;5522;42.696;23.494;2023-04-25T14:52:30;9.45;;;6.40;;
10939;SDS011;5522;42.696;23.494;2023-04-25T14:54:57;2.63;;;0.85;;
10939;SDS011;5522;42.696;23.494;2023-04-25T14:57:25;55.45;;;28.10;;
10939;SDS011;5522;42.696;23.494;2023-04-25T14:59:51;10.02;;;4.57;;
10939;SDS011;5522;42.696;23.494;2023-04-25T15:02:19;6.05;;;2.92;;
10939;SDS011;5522;42.696;23.494;2023-04-25T15:04:46;19.67;;;9.50;;
10939;SDS011;5522;42.696;23.494;2023-04-25T15:07:13;57.08;;;28.33;;
10939;SDS011;5522;42.696;23.494;2023-04-25T15:09:40;32.85;;;17.38;;
10939;SDS011;5522;42.696;23.494;2023-04-25T15:12:07;12.43;;;6.43;;
10939;SDS011;5522;42.696;23.494;2023-04-25T15:14:34;13.02;;;8.13;;
10939;SDS011;5522;42.696;23.494;2023-04-25T15:17:01;10.13;;;4.47;;